Northborough, Massachusetts
Current Conditions -  °F | °C
As of 1:54 AM on Saturday 20 Dec 2014 (Local Time) from KORH Reporting Station
Clear Clear  
Wind Chill: 16°   Ceiling: Unl
Heat Index: 23°   Visibility: 10mi
Dew Point: 19°   Wind: 6mph
Humidity: 85%   Direction: 360°N
Pressure: 30.12"   Gusts: NA
Location:  42.32°N, 71.64°W
Report Text: KORH 200654Z AUTO 36005KT 10SM CLR M05/M07 A3012 RMK AO2 SLP215 T10501072
Loading
Personal Weather Stations






























Interactive Weather Map New forecast layout! Learn more

10-Day Weather Forecast

Advertisements
Track Severe Weather on mobile